Friday, January 19, 2018, 7:16 PM CST
Back to Local

KT82, Fredericksburg, Gillespie County Airport

Location: Fredericksburg, TX, United States Lat: 30.244
Local Time: 7:16 PM CST ( 1:16 GMT) Lon: -98.909
Time Zone: US/Central Elev: 1696 ft

Show me the last for .
Show Decoded

2018-01-19 18:35 METAR KT82 200035Z AUTO 16003KT 7SM OVC006 10/09 A3006 RMK AO2 T01000089 =
2018-01-19 18:15 METAR KT82 200015Z AUTO 17006KT 7SM OVC006 10/09 A3006 RMK AO2 T01020088 =
2018-01-19 17:55 METAR KT82 192355Z AUTO 17005KT 10SM OVC006 11/09 A3006 RMK AO2 T01050088 10120
                 20095 =
2018-01-19 17:35 METAR KT82 192335Z AUTO 18005KT 10SM OVC008 11/09 A3006 RMK AO2 T01080087 =
2018-01-19 17:15 METAR KT82 192315Z AUTO 17006KT 10SM OVC008 11/09 A3006 RMK AO2 T01100088 =
2018-01-19 16:55 METAR KT82 192255Z AUTO 17007KT 10SM OVC008 11/09 A3006 RMK AO2 T01120087 =
2018-01-19 16:35 METAR KT82 192235Z AUTO 17007KT 10SM OVC010 12/09 A3006 RMK AO2 T01150087 =
2018-01-19 16:15 METAR KT82 192215Z AUTO 16005KT 10SM OVC010 12/09 A3007 RMK AO2 T01150086 =
2018-01-19 15:55 METAR KT82 192155Z AUTO 16004KT 10SM OVC010 12/09 A3007 RMK AO2 T01170086 =
2018-01-19 15:35 METAR KT82 192135Z AUTO 16005KT 10SM OVC010 12/09 A3008 RMK AO2 T01180085 =
2018-01-19 15:15 METAR KT82 192115Z AUTO 17006KT 10SM OVC010 12/08 A3009 RMK AO2 T01170083 =
2018-01-19 14:55 METAR KT82 192055Z AUTO 19005KT 10SM OVC010 12/08 A3008 RMK AO2 T01180082 =
2018-01-19 14:35 METAR KT82 192035Z AUTO 18007KT 10SM OVC008 12/08 A3009 RMK AO2 T01150081 =
2018-01-19 14:15 METAR KT82 192015Z AUTO 18006KT 10SM OVC008 11/08 A3010 RMK AO2 T01100078 =
2018-01-19 13:55 METAR KT82 191955Z AUTO 18007KT 10SM OVC008 11/08 A3011 RMK AO2 LTG DSNT SE
                 T01080078 =
2018-01-19 13:35 METAR KT82 191935Z AUTO 20006KT 10SM OVC008 11/08 A3012 RMK AO2 T01050077 =
2018-01-19 13:15 METAR KT82 191915Z AUTO 19007KT 10SM OVC008 11/08 A3014 RMK AO2 T01050077 =
2018-01-19 12:55 METAR KT82 191855Z AUTO 21006KT 10SM OVC008 10/08 A3016 RMK AO2 T01040075 =
2018-01-19 12:35 METAR KT82 191835Z AUTO 22006KT 10SM OVC008 10/07 A3018 RMK AO2 T01000072 =
2018-01-19 12:15 METAR KT82 191815Z AUTO 21008KT 10SM OVC008 10/07 A3019 RMK AO2 T00960070 =
2018-01-19 11:55 METAR KT82 191755Z AUTO 22006KT 10SM OVC008 10/07 A3020 RMK AO2 T00970070 10097
                 20032 =
2018-01-19 11:35 METAR KT82 191735Z AUTO 22007KT 10SM OVC008 10/07 A3021 RMK AO2 T00960065 =
2018-01-19 11:15 METAR KT82 191715Z AUTO 22006KT 10SM OVC008 09/06 A3022 RMK AO2 T00900062 =
2018-01-19 10:55 METAR KT82 191655Z AUTO 24006KT 10SM OVC008 09/06 A3023 RMK AO2 T00880060 =
2018-01-19 10:35 METAR KT82 191635Z AUTO 24006KT 10SM OVC008 09/06 A3022 RMK AO2 T00850059 =
2018-01-19 10:15 METAR KT82 191615Z AUTO 22007KT 10SM OVC006 08/06 A3022 RMK AO2 T00840060 =
2018-01-19 09:55 METAR KT82 191555Z AUTO 22006KT 10SM OVC006 07/06 A3022 RMK AO2 T00720055 =
2018-01-19 09:35 METAR KT82 191535Z AUTO 22006KT 10SM OVC004 07/06 A3022 RMK AO2 T00650055 =
2018-01-19 09:15 METAR KT82 191515Z AUTO 22006KT 7SM OVC004 06/05 A3021 RMK AO2 T00590051 =
2018-01-19 08:55 METAR KT82 191455Z AUTO 21005KT 2 1/2SM BR OVC004 05/05 A3021 RMK AO2 T00530046
                 =
2018-01-19 08:35 METAR KT82 191435Z AUTO 22005KT 3SM BR OVC006 05/04 A3021 RMK AO2 T00480041 =
2018-01-19 08:15 METAR KT82 191415Z AUTO 21004KT 10SM OVC006 05/04 A3021 RMK AO2 T00450038 =
2018-01-19 07:55 METAR KT82 191355Z AUTO 00000KT 7SM OVC006 04/04 A3021 RMK AO2 T00420035 =
2018-01-19 07:35 METAR KT82 191335Z AUTO 00000KT 3SM BR OVC004 04/03 A3021 RMK AO2 T00400031 =
2018-01-19 07:15 METAR KT82 191315Z AUTO 00000KT 7SM OVC004 04/03 A3022 RMK AO2 T00380030 =
2018-01-19 06:55 METAR KT82 191255Z AUTO 00000KT 5SM BR OVC006 04/03 A3023 RMK AO2 T00350027 =
2018-01-19 06:35 METAR KT82 191235Z AUTO 00000KT 10SM OVC006 04/03 A3022 RMK AO2 T00350026 =
2018-01-19 06:15 METAR KT82 191215Z AUTO 00000KT 10SM OVC006 03/03 A3022 RMK AO2 T00330025 =
2018-01-19 05:55 METAR KT82 191155Z AUTO 00000KT 7SM OVC006 03/03 A3021 RMK AO2 T00320025 10032
                 20024 =
2018-01-19 05:35 METAR KT82 191135Z AUTO 00000KT 4SM BR OVC006 03/02 A3021 RMK AO2 T00300022 =
2018-01-19 05:15 METAR KT82 191115Z AUTO 00000KT 5SM BR OVC008 03/02 A3021 RMK AO2 T00300021 =
2018-01-19 04:55 METAR KT82 191055Z AUTO 00000KT 7SM OVC006 03/02 A3023 RMK AO2 T00280020 =
2018-01-19 04:35 METAR KT82 191035Z AUTO 00000KT 4SM BR OVC006 03/02 A3023 RMK AO2 T00270018 =
2018-01-19 04:15 METAR KT82 191015Z AUTO 21003KT 5SM BR OVC006 03/02 A3024 RMK AO2 T00260016 =
2018-01-19 03:55 METAR KT82 190955Z AUTO 21003KT 5SM BR OVC006 03/02 A3024 RMK AO2 T00260015 =
2018-01-19 03:35 METAR KT82 190935Z AUTO 00000KT 7SM OVC006 03/01 A3024 RMK AO2 T00250013 =
2018-01-19 03:15 METAR KT82 190915Z AUTO 23005KT 10SM OVC006 03/01 A3024 RMK AO2 T00250010 =
2018-01-19 02:55 METAR KT82 190855Z AUTO 22006KT 10SM OVC008 03/01 A3025 RMK AO2 T00250007 =
2018-01-19 02:35 METAR KT82 190835Z AUTO 22006KT 10SM OVC010 03/01 A3026 RMK AO2 T00250005 =
2018-01-19 02:15 METAR KT82 190815Z AUTO 21008KT 10SM BKN010 OVC014 03/01 A3026 RMK AO2 T00250005
                 =
2018-01-19 01:55 METAR KT82 190755Z AUTO 22007KT 10SM OVC010 03/00 A3027 RMK AO2 T00260003 =
2018-01-19 01:35 METAR KT82 190735Z AUTO 22006KT 10SM OVC012 03/00 A3028 RMK AO2 T00260000 =
2018-01-19 01:15 METAR KT82 190715Z AUTO 21007KT 10SM OVC012 03/00 A3028 RMK AO2 T00281003 =
2018-01-19 00:55 METAR KT82 190655Z AUTO 22007KT 10SM OVC012 03/00 A3028 RMK AO2 T00281005 =
2018-01-19 00:35 METAR KT82 190635Z AUTO 24006KT 10SM OVC012 03/M01 A3029 RMK AO2 T00281007 =
2018-01-19 00:15 METAR KT82 190615Z AUTO 23005KT 10SM OVC014 03/M01 A3029 RMK AO2 T00271008 =
2018-01-18 23:55 METAR KT82 190555Z AUTO 22004KT 10SM OVC016 03/M01 A3029 RMK AO2 T00271009 10051
                 20026 400731010 =
2018-01-18 23:35 METAR KT82 190535Z AUTO 20007KT 10SM SCT016 OVC023 03/M01 A3030 RMK AO2
                 T00261007 =
2018-01-18 23:15 METAR KT82 190515Z AUTO 23005KT 10SM OVC023 03/M01 A3030 RMK AO2 T00271006 =
2018-01-18 22:55 METAR KT82 190455Z AUTO 22004KT 10SM OVC025 03/00 A3031 RMK AO2 T00261005 =
2018-01-18 22:35 METAR KT82 190435Z AUTO 20005KT 10SM OVC025 03/00 A3030 RMK AO2 T00261003 =
2018-01-18 22:15 METAR KT82 190415Z AUTO 22004KT 10SM OVC023 03/00 A3031 RMK AO2 T00271002 =
2018-01-18 21:55 METAR KT82 190355Z AUTO 20003KT 10SM BKN023 OVC028 03/00 A3031 RMK AO2 T00261001
                 =
2018-01-18 21:35 METAR KT82 190335Z AUTO 19006KT 10SM -RA BKN024 OVC029 03/00 A3032 RMK AO2
                 T00271003 =
2018-01-18 21:15 METAR KT82 190315Z AUTO 20007KT 10SM -DZ BKN024 OVC029 04/M01 A3032 RMK AO2
                 T00351011 =
2018-01-18 20:55 METAR KT82 190255Z AUTO 21005KT 10SM -DZ OVC031 04/M02 A3033 RMK AO2 T00381021 =
2018-01-18 20:35 METAR KT82 190235Z AUTO 19006KT 10SM OVC033 04/M03 A3033 RMK AO2 T00411033 =
2018-01-18 20:15 METAR KT82 190215Z AUTO 19006KT 10SM OVC031 04/M03 A3033 RMK AO2 T00421035 =
2018-01-18 19:55 METAR KT82 190155Z AUTO 20006KT 10SM OVC028 04/M04 A3033 RMK AO2 T00431038 =
2018-01-18 19:35 METAR KT82 190135Z AUTO 19005KT 10SM OVC026 05/M04 A3033 RMK AO2 T00461037 =

Support USWX by starting your Amazon purchase here.